Monday, December 10, 2018, 9:23 PM EST
Back to Local

KGSB, Seymour-johnson Air Force Base

Location: Goldsboro, NC, United States Lat: 35.333
Local Time: 9:23 PM EST ( 2:23 GMT) Lon: -77.967
Time Zone: US/Eastern Elev: 108 ft

Show me the last for .
Show Coded

Time T Td Feel RH Dir Speed Gust Alt SLP Vis Weather Sky Remarks
2018-12-10 20:56 34 31 27 87 350° 9 - 30.13 30.14 10 -RAPL OVC040 1-hr Precip Total: 0.02"
2018-12-10 20:03 34 30 28 86 360° 7 - 30.12 30.13 5 -RASN OVC045 None
2018-12-10 19:56 35 31 29 85 10° 7 - 30.12 30.13 5 -DZ OVC046 1-hr Precip Total: Trace
2018-12-10 19:46 34 30 26 86 360° 9 - 30.11 30.12 10 OVC047 None
2018-12-10 18:56 34 30 28 82 360° 8 - 30.11 30.12 10 -RA OVC044 1-hr Precip Total: Trace
6-hr Precip Total (7pm): 0.01"
6-hr Min Temp (7pm): 34.3°F
6-hr Max Temp (7pm): 37.9°F
2018-12-10 18:27 36 28 29 74 360° 8 - 30.11 30.12 10 -UP OVC041 None
2018-12-10 17:56 35 29 30 77 360° 6 - 30.09 30.10 10 OVC044 None
2018-12-10 16:56 36 29 31 75 360° 6 - 30.07 30.08 10 BKN041 OVC050 None
2018-12-10 15:56 37 29 29 74 360° 10 - 30.04 30.05 10 SCT049 OVC060 6-hr Precip Total (4pm): 0.01"
2018-12-10 14:56 37 31 33 77 20° 6 - 30.02 30.03 10 OVC060 None
2018-12-10 13:56 38 32 27 78 360° 10 20 30.03 30.04 10 BKN060 1-hr Precip Total: 0.01"
2018-12-10 12:57 36 32 30 86 10° 7 - 30.04 30.05 10 BKN035 OVC046 None
2018-12-10 12:56 36 32 30 84 10° 7 - 30.04 30.05 10 -PL BKN035 OVC046 1-hr Precip Total: 0.02"
6-hr Precip Total (1pm): 0.19"
6-hr Min Temp (1pm): 34.5°F
6-hr Max Temp (1pm): 36.9°F
2018-12-10 12:38 36 32 29 86 10° 8 - 30.05 30.06 10 -RA FEW013 SCT029 OVC036 None
2018-12-10 12:33 36 32 29 86 350° 8 - 30.05 30.06 10 FEW013 OVC034 None
2018-12-10 12:08 36 32 25 86 10° 8 18 30.05 30.06 9 -RA SCT011 SCT015 OVC036 None
2018-12-10 11:56 35 31 27 87 10° 9 - 30.05 30.06 10 -RA BKN010 BKN014 BKN020 BKN030 OVC036 1-hr Precip Total: 0.03"
2018-12-10 11:51 36 32 26 86 10° 9 16 30.05 30.06 10 -RA BKN010 BKN014 BKN020 BKN030 OVC037 None
2018-12-10 11:44 36 32 29 86 360° 9 - 30.05 30.06 10 BKN012 OVC041 None
2018-12-10 11:20 36 32 26 86 360° 12 16 30.05 30.06 10 -RA OVC011 None
2018-12-10 11:17 36 32 31 86 360° 6 - 30.06 30.07 10 -RA BKN009 OVC015 None
2018-12-10 10:56 35 32 24 89 360° 10 18 30.06 30.07 8 -RA OVC007 1-hr Precip Total: 0.04"
2018-12-10 10:23 34 32 25 93 360° 12 - 30.05 30.06 5 -RA BR BKN006 BKN010 None
2018-12-10 09:59 36 32 25 86 360° 9 20 30.04 30.05 5 -RA BR OVC007 None
2018-12-10 09:56 35 32 23 91 10° 9 22 30.04 30.05 6 -RA BR OVC006 1-hr Precip Total: 0.01"
6-hr Precip Total (10am): 0.10"
2018-12-10 09:48 36 32 24 86 360° 14 22 30.03 30.04 6 -RA BR OVC006 None
2018-12-10 09:33 36 32 25 86 360° 13 18 30.02 30.03 7 -RA OVC007 None
2018-12-10 09:22 36 32 25 86 360° 12 21 30.01 30.02 8 OVC007 None
2018-12-10 09:20 36 32 25 86 360° 10 20 30.01 30.02 7 -RA OVC007 None
2018-12-10 08:56 35 33 28 91 10° 9 - 30.00 30.01 7 -RA OVC006 1-hr Precip Total: 0.04"
2018-12-10 08:35 36 34 25 93 20° 12 18 29.99 30.00 8 -RA OVC006 None
2018-12-10 08:17 36 34 26 93 10° 10 16 29.98 29.99 6 -RA BR OVC007 None
2018-12-10 07:56 36 33 26 91 10° 13 17 29.97 29.98 5 -RA BR OVC006 1-hr Precip Total: 0.05"
2018-12-10 07:35 36 34 25 93 20° 10 17 29.96 29.97 6 -RA BR OVC006 None
2018-12-10 07:26 36 34 28 93 10° 10 - 29.95 29.96 7 -RA OVC007 None
2018-12-10 06:56 37 35 27 91 360° 12 16 29.94 29.95 6 -RA BR OVC006 1-hr Precip Total: 0.05"
6-hr Precip Total (7am): 0.14"
6-hr Min Temp (7am): 36.9°F
6-hr Max Temp (7am): 38.8°F
2018-12-10 05:56 38 35 27 91 10° 9 20 29.92 - 7 -DZ OVC006 1-hr Precip Total: 0.03"
2018-12-10 04:56 37 35 26 91 20° 13 22 29.89 - 7 -DZ OVC006 1-hr Precip Total: 0.03"
2018-12-10 04:38 37 36 27 93 20° 13 22 29.89 - 8 -DZ OVC006 None
2018-12-10 03:56 38 35 28 89 20° 9 20 29.88 29.89 8 -DZ OVC007 1-hr Precip Total: 0.03"
6-hr Precip Total (4am): 0.03"
2018-12-10 03:02 37 36 27 93 10° 13 18 29.89 29.90 9 -RA OVC007 None
2018-12-10 02:56 38 35 28 87 10° 14 18 29.89 29.90 10 -RA OVC009 1-hr Precip Total: Trace
2018-12-10 02:28 39 36 29 86 10° 13 22 29.89 29.90 10 -RA OVC009 None
2018-12-10 02:18 39 36 30 86 10° 13 20 29.89 29.90 10 OVC009 None
2018-12-10 01:56 39 35 29 86 10° 13 20 29.88 29.89 10 -RA OVC009 1-hr Precip Total: Trace
2018-12-10 01:51 39 36 30 86 20° 9 20 29.89 29.90 10 -RA OVC009 None
2018-12-10 01:48 39 36 29 86 10° 14 21 29.88 29.89 10 -RA OVC010 None
2018-12-10 01:29 39 36 29 86 20° 15 23 29.88 29.89 10 OVC010 None
2018-12-10 00:59 39 36 29 86 30° 14 22 29.89 29.90 10 OVC008 None
2018-12-10 00:56 38 36 28 89 360° 12 21 29.89 29.90 10 OVC007 6-hr Precip Total (1am): 0.00"
6-hr Min Temp (1am): 38.3°F
6-hr Max Temp (1am): 39.6°F
2018-12-09 23:56 39 37 29 89 360° 10 22 29.89 29.90 10 OVC007 1-hr Precip Total: Trace
24-hr Min Temp (12am): 32.9°F
24-hr Max Temp (12am): 40.6°F
2018-12-09 23:15 39 36 28 86 10° 15 26 29.89 29.90 10 OVC007 None
2018-12-09 23:06 39 36 28 86 350° 17 26 29.89 29.90 10 -DZ OVC007 None
2018-12-09 22:56 39 36 28 89 360° 14 22 29.89 29.90 10 OVC007 None
2018-12-09 21:56 39 36 29 89 360° 12 20 29.89 29.90 9 OVC007 None
2018-12-09 21:35 39 36 30 86 360° 12 18 29.88 29.89 9 OVC007 None

Support USWX by starting your Amazon purchase here.